New Point, Indiana
Current Conditions -  °F | °C
As of 10:15 AM on Wednesday 26 Nov 2014 (Local Time) from KI67 Reporting Station
Overcast Overcast  
Wind Chill: 27°   Ceiling: 2700
Heat Index: 32°   Visibility: 10mi
Dew Point: 28°   Wind: 5mph
Humidity: 87%   Direction: 30°NNE
Pressure: 30.15"   Gusts: NA
Location:  39.31°N, 85.33°W
Report Text: KI67 261515Z AUTO 03004KT 10SM SCT017 OVC027 00/M02 A3015 RMK AO1
Loading
Personal Weather Stations






























Interactive Weather Map New forecast layout! Learn more

10-Day Weather Forecast

Advertisements
Track Severe Weather on mobile